sensor_id;sensor_type;location;lat;lon;timestamp;pressure;altitude;pressure_sealevel;temperature;humidity
64792;BME280;51226;47.504;19.074;2023-05-24T00:02:28;99968.19;;;19.40;72.12
64792;BME280;51226;47.504;19.074;2023-05-24T00:05:32;99956.72;;;19.42;71.88
64792;BME280;51226;47.504;19.074;2023-05-24T00:08:34;99951.50;;;19.30;72.31
64792;BME280;51226;47.504;19.074;2023-05-24T00:11:37;99951.47;;;19.38;71.91
64792;BME280;51226;47.504;19.074;2023-05-24T00:14:40;99947.06;;;19.29;72.52
64792;BME280;51226;47.504;19.074;2023-05-24T00:17:42;99942.59;;;19.43;71.27
64792;BME280;51226;47.504;19.074;2023-05-24T00:20:45;99946.19;;;19.32;71.62
64792;BME280;51226;47.504;19.074;2023-05-24T00:23:49;99940.00;;;19.34;71.28
64792;BME280;51226;47.504;19.074;2023-05-24T00:26:53;99940.03;;;19.31;71.38
64792;BME280;51226;47.504;19.074;2023-05-24T00:29:55;99934.69;;;19.37;70.03
64792;BME280;51226;47.504;19.074;2023-05-24T00:32:58;99939.94;;;19.47;69.63
64792;BME280;51226;47.504;19.074;2023-05-24T00:36:01;99934.66;;;19.47;69.63
64792;BME280;51226;47.504;19.074;2023-05-24T00:39:03;99935.56;;;19.39;69.98
64792;BME280;51226;47.504;19.074;2023-05-24T00:42:06;99925.91;;;19.37;69.45
64792;BME280;51226;47.504;19.074;2023-05-24T00:45:09;99931.25;;;19.24;70.03
64792;BME280;51226;47.504;19.074;2023-05-24T00:48:12;99933.00;;;19.22;69.85
64792;BME280;51226;47.504;19.074;2023-05-24T00:51:15;99924.22;;;19.22;69.85
64792;BME280;51226;47.504;19.074;2023-05-24T00:54:18;99933.91;;;19.18;69.57
64792;BME280;51226;47.504;19.074;2023-05-24T00:57:22;99933.00;;;19.24;69.20
64792;BME280;51226;47.504;19.074;2023-05-24T01:00:25;99934.69;;;19.36;67.76
64792;BME280;51226;47.504;19.074;2023-05-24T01:03:29;99940.91;;;19.29;67.84
64792;BME280;51226;47.504;19.074;2023-05-24T01:06:37;99936.59;;;19.07;68.82
64792;BME280;51226;47.504;19.074;2023-05-24T01:09:49;99934.88;;;19.00;69.40
64792;BME280;51226;47.504;19.074;2023-05-24T01:16:10;99933.94;;;19.09;68.82
64792;BME280;51226;47.504;19.074;2023-05-24T01:25:52;99934.88;;;18.97;69.43
64792;BME280;51226;47.504;19.074;2023-05-24T01:29:02;99931.38;;;18.92;69.65
64792;BME280;51226;47.504;19.074;2023-05-24T01:32:06;99934.00;;;18.97;69.60
64792;BME280;51226;47.504;19.074;2023-05-24T01:35:08;99934.88;;;19.03;68.79
64792;BME280;51226;47.504;19.074;2023-05-24T01:38:11;99927.81;;;19.04;68.76
64792;BME280;51226;47.504;19.074;2023-05-24T01:44:38;99923.44;;;18.95;69.46
64792;BME280;51226;47.504;19.074;2023-05-24T01:50:57;99920.78;;;19.04;68.64
64792;BME280;51226;47.504;19.074;2023-05-24T01:54:00;99912.84;;;19.04;68.17
64792;BME280;51226;47.504;19.074;2023-05-24T01:57:06;99916.38;;;19.00;68.91
64792;BME280;51226;47.504;19.074;2023-05-24T02:00:11;99920.78;;;18.98;68.95
64792;BME280;51226;47.504;19.074;2023-05-24T02:03:15;99911.94;;;18.99;68.55
64792;BME280;51226;47.504;19.074;2023-05-24T02:06:18;99909.31;;;18.99;68.41
64792;BME280;51226;47.504;19.074;2023-05-24T02:09:21;99917.28;;;18.93;68.81
64792;BME280;51226;47.504;19.074;2023-05-24T02:12:24;99918.16;;;18.92;69.39
64792;BME280;51226;47.504;19.074;2023-05-24T02:15:27;99921.72;;;18.91;69.60
64792;BME280;51226;47.504;19.074;2023-05-24T02:18:32;99925.16;;;19.04;69.14
64792;BME280;51226;47.504;19.074;2023-05-24T02:21:36;99919.06;;;18.91;69.77
64792;BME280;51226;47.504;19.074;2023-05-24T02:24:39;99917.31;;;18.84;70.38
64792;BME280;51226;47.504;19.074;2023-05-24T02:27:41;99928.72;;;18.92;70.50
64792;BME280;51226;47.504;19.074;2023-05-24T02:30:48;99921.72;;;18.86;70.74
64792;BME280;51226;47.504;19.074;2023-05-24T02:33:51;99920.84;;;18.70;71.49
64792;BME280;51226;47.504;19.074;2023-05-24T02:36:53;99923.50;;;18.64;71.83
64792;BME280;51226;47.504;19.074;2023-05-24T02:39:57;99918.22;;;18.57;72.36
64792;BME280;51226;47.504;19.074;2023-05-24T02:42:59;99918.25;;;18.54;72.78
64792;BME280;51226;47.504;19.074;2023-05-24T02:46:02;99911.19;;;18.65;72.55
64792;BME280;51226;47.504;19.074;2023-05-24T02:49:05;99912.97;;;18.47;73.46
64792;BME280;51226;47.504;19.074;2023-05-24T02:52:08;99917.37;;;18.55;73.51
64792;BME280;51226;47.504;19.074;2023-05-24T02:55:11;99914.72;;;18.56;73.05
64792;BME280;51226;47.504;19.074;2023-05-24T02:58:13;99914.72;;;18.44;73.91
64792;BME280;51226;47.504;19.074;2023-05-24T03:01:20;99913.84;;;18.48;74.15
64792;BME280;51226;47.504;19.074;2023-05-24T03:04:23;99916.50;;;18.49;73.91
64792;BME280;51226;47.504;19.074;2023-05-24T03:07:26;99919.16;;;18.49;74.25
64792;BME280;51226;47.504;19.074;2023-05-24T03:10:28;99927.91;;;18.64;73.34
64792;BME280;51226;47.504;19.074;2023-05-24T03:13:31;99940.22;;;18.56;73.68
64792;BME280;51226;47.504;19.074;2023-05-24T03:16:34;99939.37;;;18.57;73.85
64792;BME280;51226;47.504;19.074;2023-05-24T03:19:38;99931.44;;;18.49;74.36
64792;BME280;51226;47.504;19.074;2023-05-24T03:22:40;99933.22;;;18.53;74.27
64792;BME280;51226;47.504;19.074;2023-05-24T03:25:43;99936.72;;;18.50;74.52
64792;BME280;51226;47.504;19.074;2023-05-24T03:28:47;99931.44;;;18.58;74.33
64792;BME280;51226;47.504;19.074;2023-05-24T03:31:53;99934.94;;;18.54;74.55
64792;BME280;51226;47.504;19.074;2023-05-24T03:34:56;99932.34;;;18.46;75.16
64792;BME280;51226;47.504;19.074;2023-05-24T03:38:01;99926.16;;;18.52;75.27
64792;BME280;51226;47.504;19.074;2023-05-24T03:41:04;99927.06;;;18.40;75.68
64792;BME280;51226;47.504;19.074;2023-05-24T03:44:07;99929.72;;;18.39;75.95
64792;BME280;51226;47.504;19.074;2023-05-24T03:47:11;99935.84;;;18.42;76.25
64792;BME280;51226;47.504;19.074;2023-05-24T03:50:14;99930.56;;;18.58;75.28
64792;BME280;51226;47.504;19.074;2023-05-24T03:53:16;99942.91;;;18.51;75.68
64792;BME280;51226;47.504;19.074;2023-05-24T03:56:19;99949.03;;;18.68;75.00
64792;BME280;51226;47.504;19.074;2023-05-24T03:59:22;99955.22;;;18.58;75.51
64792;BME280;51226;47.504;19.074;2023-05-24T04:02:24;99950.81;;;18.60;75.60
64792;BME280;51226;47.504;19.074;2023-05-24T04:05:28;99955.22;;;18.63;75.54
64792;BME280;51226;47.504;19.074;2023-05-24T04:08:31;99961.38;;;18.54;76.11
64792;BME280;51226;47.504;19.074;2023-05-24T04:11:34;99959.62;;;18.50;76.27
64792;BME280;51226;47.504;19.074;2023-05-24T04:14:37;99967.56;;;18.53;76.20
64792;BME280;51226;47.504;19.074;2023-05-24T04:17:41;99967.56;;;18.56;76.24
64792;BME280;51226;47.504;19.074;2023-05-24T04:20:45;99963.13;;;18.55;76.56
64792;BME280;51226;47.504;19.074;2023-05-24T04:23:48;99974.56;;;18.56;76.61
64792;BME280;51226;47.504;19.074;2023-05-24T04:26:50;99974.56;;;18.59;76.86
64792;BME280;51226;47.504;19.074;2023-05-24T04:29:53;99975.44;;;18.75;75.79
64792;BME280;51226;47.504;19.074;2023-05-24T04:32:56;99978.09;;;18.65;76.64
64792;BME280;51226;47.504;19.074;2023-05-24T04:35:59;99984.22;;;18.77;76.64
64792;BME280;51226;47.504;19.074;2023-05-24T04:39:03;99986.88;;;18.81;76.79
64792;BME280;51226;47.504;19.074;2023-05-24T04:42:06;99989.50;;;18.89;76.29
64792;BME280;51226;47.504;19.074;2023-05-24T04:45:09;99980.72;;;18.84;76.54
64792;BME280;51226;47.504;19.074;2023-05-24T04:48:12;99978.94;;;18.89;76.95
64792;BME280;51226;47.504;19.074;2023-05-24T04:51:14;99977.16;;;19.10;75.81
64792;BME280;51226;47.504;19.074;2023-05-24T04:54:17;99981.47;;;19.26;74.96
64792;BME280;51226;47.504;19.074;2023-05-24T04:57:20;99992.94;;;19.22;75.53
64792;BME280;51226;47.504;19.074;2023-05-24T05:00:22;99991.13;;;19.36;74.79
64792;BME280;51226;47.504;19.074;2023-05-24T05:03:25;99981.41;;;19.44;74.73
64792;BME280;51226;47.504;19.074;2023-05-24T05:06:28;99987.50;;;19.56;73.97
64792;BME280;51226;47.504;19.074;2023-05-24T05:09:30;99994.50;;;19.75;72.70
64792;BME280;51226;47.504;19.074;2023-05-24T05:12:33;99996.25;;;19.73;72.56
64792;BME280;51226;47.504;19.074;2023-05-24T05:15:36;99999.84;;;19.60;73.46
64792;BME280;51226;47.504;19.074;2023-05-24T05:18:38;100003.34;;;19.63;73.10
64792;BME280;51226;47.504;19.074;2023-05-24T05:21:42;100000.66;;;19.77;72.70
64792;BME280;51226;47.504;19.074;2023-05-24T05:24:44;99998.88;;;19.72;72.84
64792;BME280;51226;47.504;19.074;2023-05-24T05:27:47;99997.12;;;19.80;72.02
64792;BME280;51226;47.504;19.074;2023-05-24T05:30:50;100000.59;;;19.85;71.44
64792;BME280;51226;47.504;19.074;2023-05-24T05:33:52;100000.59;;;19.91;70.92
64792;BME280;51226;47.504;19.074;2023-05-24T05:36:55;99998.84;;;19.79;71.84
64792;BME280;51226;47.504;19.074;2023-05-24T05:39:58;100005.03;;;19.85;71.51
64792;BME280;51226;47.504;19.074;2023-05-24T05:43:00;100004.97;;;19.91;70.69
64792;BME280;51226;47.504;19.074;2023-05-24T05:46:03;100012.06;;;19.89;71.10
64792;BME280;51226;47.504;19.074;2023-05-24T05:49:06;100001.38;;;19.99;70.58
64792;BME280;51226;47.504;19.074;2023-05-24T05:52:11;100004.94;;;19.95;70.69
64792;BME280;51226;47.504;19.074;2023-05-24T05:55:13;100008.44;;;19.99;70.70
64792;BME280;51226;47.504;19.074;2023-05-24T05:58:18;100013.75;;;19.96;71.07
64792;BME280;51226;47.504;19.074;2023-05-24T06:01:24;100017.22;;;20.07;70.39
64792;BME280;51226;47.504;19.074;2023-05-24T06:04:27;100017.19;;;20.16;70.29
64792;BME280;51226;47.504;19.074;2023-05-24T06:07:30;100021.53;;;20.21;71.10
64792;BME280;51226;47.504;19.074;2023-05-24T06:10:33;100024.97;;;20.36;69.94
64792;BME280;51226;47.504;19.074;2023-05-24T06:13:35;100025.69;;;20.52;68.40
64792;BME280;51226;47.504;19.074;2023-05-24T06:16:38;100024.72;;;20.66;69.11
64792;BME280;51226;47.504;19.074;2023-05-24T06:19:44;100022.75;;;20.86;68.52
64792;BME280;51226;47.504;19.074;2023-05-24T06:22:48;100027.78;;;21.16;66.58
64792;BME280;51226;47.504;19.074;2023-05-24T06:25:51;100022.19;;;21.40;65.69
64792;BME280;51226;47.504;19.074;2023-05-24T06:28:54;100032.38;;;21.74;63.21
64792;BME280;51226;47.504;19.074;2023-05-24T06:31:57;100040.28;;;21.79;63.52
64792;BME280;51226;47.504;19.074;2023-05-24T06:35:00;100036.72;;;21.80;63.44
64792;BME280;51226;47.504;19.074;2023-05-24T06:38:02;100042.72;;;21.96;62.59
64792;BME280;51226;47.504;19.074;2023-05-24T06:41:05;100035.59;;;21.96;62.47
64792;BME280;51226;47.504;19.074;2023-05-24T06:44:08;100032.88;;;22.02;61.65
64792;BME280;51226;47.504;19.074;2023-05-24T06:47:11;100041.16;;;21.81;63.40
64792;BME280;51226;47.504;19.074;2023-05-24T06:50:13;100038.38;;;21.90;62.51
64792;BME280;51226;47.504;19.074;2023-05-24T06:53:16;100039.25;;;21.89;62.11
64792;BME280;51226;47.504;19.074;2023-05-24T06:56:19;100046.28;;;21.93;61.34
64792;BME280;51226;47.504;19.074;2023-05-24T06:59:22;100048.16;;;21.85;61.73
64792;BME280;51226;47.504;19.074;2023-05-24T07:02:24;100054.37;;;21.84;62.46
64792;BME280;51226;47.504;19.074;2023-05-24T07:05:29;100050.59;;;22.02;63.92
64792;BME280;51226;47.504;19.074;2023-05-24T07:08:32;100050.34;;;22.19;62.77
64792;BME280;51226;47.504;19.074;2023-05-24T07:11:35;100056.25;;;22.39;61.29
64792;BME280;51226;47.504;19.074;2023-05-24T07:14:37;100051.44;;;22.63;59.77
64792;BME280;51226;47.504;19.074;2023-05-24T07:17:40;100066.12;;;22.86;57.99
64792;BME280;51226;47.504;19.074;2023-05-24T07:20:43;100063.19;;;23.01;57.47
64792;BME280;51226;47.504;19.074;2023-05-24T07:23:46;100065.75;;;23.07;59.69
64792;BME280;51226;47.504;19.074;2023-05-24T07:26:49;100064.41;;;23.31;58.66
64792;BME280;51226;47.504;19.074;2023-05-24T07:29:53;100069.25;;;23.56;57.67
64792;BME280;51226;47.504;19.074;2023-05-24T07:32:55;100074.87;;;23.86;59.00
64792;BME280;51226;47.504;19.074;2023-05-24T07:35:58;100072.47;;;24.14;55.38
64792;BME280;51226;47.504;19.074;2023-05-24T07:39:01;100077.34;;;24.34;55.18
64792;BME280;51226;47.504;19.074;2023-05-24T07:42:06;100073.28;;;24.54;57.34
64792;BME280;51226;47.504;19.074;2023-05-24T07:45:08;100070.59;;;24.91;51.95
64792;BME280;51226;47.504;19.074;2023-05-24T07:48:12;100084.63;;;25.00;52.85
64792;BME280;51226;47.504;19.074;2023-05-24T07:51:14;100078.56;;;25.27;51.04
64792;BME280;51226;47.504;19.074;2023-05-24T07:54:17;100081.94;;;25.34;51.79
64792;BME280;51226;47.504;19.074;2023-05-24T07:57:20;100078.13;;;25.74;49.31
64792;BME280;51226;47.504;19.074;2023-05-24T08:00:23;100083.56;;;25.71;50.15
64792;BME280;51226;47.504;19.074;2023-05-24T08:03:26;100085.59;;;25.63;51.81
64792;BME280;51226;47.504;19.074;2023-05-24T08:06:30;100085.59;;;25.93;50.26
64792;BME280;51226;47.504;19.074;2023-05-24T08:09:34;100084.53;;;26.00;50.51
64792;BME280;51226;47.504;19.074;2023-05-24T08:12:37;100090.66;;;26.32;48.02
64792;BME280;51226;47.504;19.074;2023-05-24T08:15:40;100087.72;;;26.39;47.04
64792;BME280;51226;47.504;19.074;2023-05-24T08:18:43;100089.53;;;26.67;45.57
64792;BME280;51226;47.504;19.074;2023-05-24T08:21:46;100093.41;;;26.57;46.09
64792;BME280;51226;47.504;19.074;2023-05-24T08:24:49;100091.06;;;26.46;46.38
64792;BME280;51226;47.504;19.074;2023-05-24T08:27:52;100100.09;;;26.43;51.94
64792;BME280;51226;47.504;19.074;2023-05-24T08:30:54;100100.47;;;26.86;46.09
64792;BME280;51226;47.504;19.074;2023-05-24T08:33:57;100099.09;;;27.26;44.65
64792;BME280;51226;47.504;19.074;2023-05-24T08:37:00;100107.56;;;27.41;44.59
64792;BME280;51226;47.504;19.074;2023-05-24T08:40:03;100116.56;;;27.11;46.24
64792;BME280;51226;47.504;19.074;2023-05-24T08:43:06;100111.37;;;26.82;45.77
64792;BME280;51226;47.504;19.074;2023-05-24T08:46:13;100118.00;;;26.41;47.63
64792;BME280;51226;47.504;19.074;2023-05-24T08:49:17;100115.16;;;26.18;46.41
64792;BME280;51226;47.504;19.074;2023-05-24T08:52:20;100127.28;;;26.00;47.72
64792;BME280;51226;47.504;19.074;2023-05-24T08:55:23;100127.88;;;26.10;46.95
64792;BME280;51226;47.504;19.074;2023-05-24T08:58:26;100134.69;;;26.50;45.46
64792;BME280;51226;47.504;19.074;2023-05-24T09:01:28;100128.00;;;27.43;43.08
64792;BME280;51226;47.504;19.074;2023-05-24T09:04:34;100127.72;;;28.23;41.41
64792;BME280;51226;47.504;19.074;2023-05-24T09:07:37;100130.53;;;28.87;43.01
64792;BME280;51226;47.504;19.074;2023-05-24T09:10:40;100138.28;;;29.58;38.49
64792;BME280;51226;47.504;19.074;2023-05-24T09:13:56;100129.06;;;30.22;40.36
64792;BME280;51226;47.504;19.074;2023-05-24T09:16:59;100129.88;;;30.79;35.57
64792;BME280;51226;47.504;19.074;2023-05-24T09:20:07;100122.00;;;31.11;35.28
64792;BME280;51226;47.504;19.074;2023-05-24T09:23:11;100128.31;;;31.45;34.62
64792;BME280;51226;47.504;19.074;2023-05-24T09:26:15;100124.75;;;31.62;33.57
64792;BME280;51226;47.504;19.074;2023-05-24T09:29:21;100120.97;;;31.82;33.88
64792;BME280;51226;47.504;19.074;2023-05-24T09:32:25;100121.97;;;31.64;34.67
64792;BME280;51226;47.504;19.074;2023-05-24T09:35:30;100116.28;;;31.52;33.96
64792;BME280;51226;47.504;19.074;2023-05-24T09:38:33;100119.03;;;31.84;37.03
64792;BME280;51226;47.504;19.074;2023-05-24T09:41:38;100120.69;;;32.20;33.29
64792;BME280;51226;47.504;19.074;2023-05-24T09:44:44;100118.28;;;32.63;32.65
64792;BME280;51226;47.504;19.074;2023-05-24T09:47:48;100116.25;;;32.67;32.31
64792;BME280;51226;47.504;19.074;2023-05-24T09:51:04;100119.81;;;32.67;33.11
64792;BME280;51226;47.504;19.074;2023-05-24T09:54:07;100121.31;;;32.73;31.96
64792;BME280;51226;47.504;19.074;2023-05-24T09:57:11;100117.25;;;32.96;31.90
64792;BME280;51226;47.504;19.074;2023-05-24T10:00:13;100116.75;;;33.34;31.96
64792;BME280;51226;47.504;19.074;2023-05-24T10:03:23;100123.75;;;33.67;32.42
64792;BME280;51226;47.504;19.074;2023-05-24T10:06:26;100113.72;;;33.98;30.89
64792;BME280;51226;47.504;19.074;2023-05-24T10:09:29;100122.78;;;34.26;29.03
64792;BME280;51226;47.504;19.074;2023-05-24T10:12:35;100124.66;;;34.25;30.83
64792;BME280;51226;47.504;19.074;2023-05-24T10:15:38;100114.47;;;34.14;29.25
64792;BME280;51226;47.504;19.074;2023-05-24T10:18:40;100110.66;;;33.90;30.52
64792;BME280;51226;47.504;19.074;2023-05-24T10:21:44;100111.37;;;34.06;31.72
64792;BME280;51226;47.504;19.074;2023-05-24T10:24:48;100097.97;;;34.46;29.06
64792;BME280;51226;47.504;19.074;2023-05-24T10:28:02;100111.37;;;34.35;31.29
64792;BME280;51226;47.504;19.074;2023-05-24T10:31:30;100109.78;;;34.45;28.98
64792;BME280;51226;47.504;19.074;2023-05-24T10:34:29;100108.47;;;34.65;28.83
64792;BME280;51226;47.504;19.074;2023-05-24T10:37:31;100105.16;;;34.75;31.01
64792;BME280;51226;47.504;19.074;2023-05-24T10:40:39;100118.50;;;34.36;28.68
64792;BME280;51226;47.504;19.074;2023-05-24T10:43:44;100110.06;;;33.70;29.09
64792;BME280;51226;47.504;19.074;2023-05-24T10:47:06;100099.94;;;33.74;29.54
64792;BME280;51226;47.504;19.074;2023-05-24T10:50:17;100096.31;;;33.88;28.57
64792;BME280;51226;47.504;19.074;2023-05-24T10:53:21;100097.47;;;33.98;28.61
64792;BME280;51226;47.504;19.074;2023-05-24T10:56:26;100092.44;;;34.06;28.94
64792;BME280;51226;47.504;19.074;2023-05-24T10:59:33;100089.72;;;34.06;28.16
64792;BME280;51226;47.504;19.074;2023-05-24T11:02:39;100099.41;;;33.38;31.83
64792;BME280;51226;47.504;19.074;2023-05-24T11:08:47;100108.34;;;32.94;30.13
64792;BME280;51226;47.504;19.074;2023-05-24T11:11:54;100101.22;;;33.23;30.18
64792;BME280;51226;47.504;19.074;2023-05-24T11:14:57;100097.75;;;33.65;29.75
64792;BME280;51226;47.504;19.074;2023-05-24T11:21:14;100088.41;;;33.41;32.09
64792;BME280;51226;47.504;19.074;2023-05-24T11:24:18;100089.59;;;33.81;29.48
64792;BME280;51226;47.504;19.074;2023-05-24T11:27:21;100083.03;;;33.70;29.55
64792;BME280;51226;47.504;19.074;2023-05-24T11:30:25;100070.84;;;33.77;29.11
64792;BME280;51226;47.504;19.074;2023-05-24T11:33:27;100062.50;;;33.95;28.87
64792;BME280;51226;47.504;19.074;2023-05-24T11:36:31;100058.63;;;33.99;29.53
64792;BME280;51226;47.504;19.074;2023-05-24T11:39:34;100059.62;;;33.69;30.05
64792;BME280;51226;47.504;19.074;2023-05-24T11:42:38;100059.62;;;33.84;29.22
64792;BME280;51226;47.504;19.074;2023-05-24T11:45:41;100065.03;;;33.69;33.00
64792;BME280;51226;47.504;19.074;2023-05-24T11:48:55;100062.44;;;33.82;29.87
64792;BME280;51226;47.504;19.074;2023-05-24T11:51:58;100067.53;;;33.44;29.59
64792;BME280;51226;47.504;19.074;2023-05-24T11:55:01;100061.03;;;33.17;30.15
64792;BME280;51226;47.504;19.074;2023-05-24T11:58:05;100055.69;;;32.55;30.84
64792;BME280;51226;47.504;19.074;2023-05-24T12:01:21;100063.63;;;32.58;31.08
64792;BME280;51226;47.504;19.074;2023-05-24T12:04:24;100056.56;;;32.72;30.03
64792;BME280;51226;47.504;19.074;2023-05-24T12:07:27;100062.94;;;32.55;31.25
64792;BME280;51226;47.504;19.074;2023-05-24T12:10:31;100068.78;;;32.47;31.05
64792;BME280;51226;47.504;19.074;2023-05-24T12:13:34;100059.22;;;32.25;31.29
64792;BME280;51226;47.504;19.074;2023-05-24T12:16:37;100063.38;;;31.50;32.37
64792;BME280;51226;47.504;19.074;2023-05-24T12:19:40;100061.94;;;30.74;33.46
64792;BME280;51226;47.504;19.074;2023-05-24T12:22:51;100059.91;;;30.24;33.70
64792;BME280;51226;47.504;19.074;2023-05-24T12:26:00;100062.47;;;30.08;36.23
64792;BME280;51226;47.504;19.074;2023-05-24T12:29:03;100058.09;;;30.05;34.73
64792;BME280;51226;47.504;19.074;2023-05-24T12:32:06;100060.63;;;29.70;35.40
64792;BME280;51226;47.504;19.074;2023-05-24T12:35:18;100059.00;;;29.47;36.74
64792;BME280;51226;47.504;19.074;2023-05-24T12:38:22;100059.41;;;29.38;36.33
64792;BME280;51226;47.504;19.074;2023-05-24T12:41:27;100056.84;;;29.14;35.74
64792;BME280;51226;47.504;19.074;2023-05-24T12:47:33;100052.66;;;29.29;36.04
64792;BME280;51226;47.504;19.074;2023-05-24T12:50:35;100041.13;;;29.65;36.12
64792;BME280;51226;47.504;19.074;2023-05-24T12:53:38;100039.78;;;29.95;35.03
64792;BME280;51226;47.504;19.074;2023-05-24T12:56:41;100037.50;;;29.66;35.16
64792;BME280;51226;47.504;19.074;2023-05-24T12:59:45;100037.97;;;29.36;35.90
64792;BME280;51226;47.504;19.074;2023-05-24T13:02:48;100038.56;;;29.24;35.79
64792;BME280;51226;47.504;19.074;2023-05-24T13:05:54;100031.47;;;29.22;36.35
64792;BME280;51226;47.504;19.074;2023-05-24T13:08:57;100031.16;;;29.48;36.36
64792;BME280;51226;47.504;19.074;2023-05-24T13:11:59;100020.44;;;29.67;35.72
64792;BME280;51226;47.504;19.074;2023-05-24T13:15:02;100024.50;;;29.76;35.04
64792;BME280;51226;47.504;19.074;2023-05-24T13:18:06;100029.88;;;29.76;35.47
64792;BME280;51226;47.504;19.074;2023-05-24T13:21:08;100015.59;;;29.75;35.34
64792;BME280;51226;47.504;19.074;2023-05-24T13:24:14;100023.28;;;29.64;35.77
64792;BME280;51226;47.504;19.074;2023-05-24T13:27:17;100016.81;;;29.68;35.04
64792;BME280;51226;47.504;19.074;2023-05-24T13:30:20;100021.97;;;29.54;35.54
64792;BME280;51226;47.504;19.074;2023-05-24T13:33:32;100022.63;;;29.59;35.18
64792;BME280;51226;47.504;19.074;2023-05-24T13:36:37;100013.31;;;29.66;35.16
64792;BME280;51226;47.504;19.074;2023-05-24T13:39:41;100019.13;;;29.76;35.73
64792;BME280;51226;47.504;19.074;2023-05-24T13:42:44;100021.38;;;29.66;38.39
64792;BME280;51226;47.504;19.074;2023-05-24T13:45:46;100016.66;;;29.71;35.62
64792;BME280;51226;47.504;19.074;2023-05-24T13:48:49;100014.75;;;29.73;36.66
64792;BME280;51226;47.504;19.074;2023-05-24T13:51:52;100013.03;;;29.72;35.21
64792;BME280;51226;47.504;19.074;2023-05-24T13:55:01;100009.38;;;29.73;34.60
64792;BME280;51226;47.504;19.074;2023-05-24T13:58:04;100002.16;;;29.75;35.12
64792;BME280;51226;47.504;19.074;2023-05-24T14:01:07;100009.63;;;29.69;35.19
64792;BME280;51226;47.504;19.074;2023-05-24T14:04:11;100002.63;;;29.46;34.88
64792;BME280;51226;47.504;19.074;2023-05-24T14:07:13;99998.47;;;29.19;35.86
64792;BME280;51226;47.504;19.074;2023-05-24T14:10:19;100018.91;;;29.01;36.51
64792;BME280;51226;47.504;19.074;2023-05-24T14:13:23;100012.69;;;29.01;35.93
64792;BME280;51226;47.504;19.074;2023-05-24T14:16:46;100008.38;;;28.76;36.41
64792;BME280;51226;47.504;19.074;2023-05-24T14:19:52;100001.22;;;28.55;37.07
64792;BME280;51226;47.504;19.074;2023-05-24T14:22:55;100002.75;;;28.40;37.35
64792;BME280;51226;47.504;19.074;2023-05-24T14:26:05;100013.75;;;28.34;37.86
64792;BME280;51226;47.504;19.074;2023-05-24T14:29:25;100013.94;;;28.29;37.89
64792;BME280;51226;47.504;19.074;2023-05-24T14:32:31;100011.06;;;28.34;37.06
64792;BME280;51226;47.504;19.074;2023-05-24T14:35:34;100007.03;;;28.23;37.13
64792;BME280;51226;47.504;19.074;2023-05-24T14:38:39;100010.81;;;28.18;37.26
64792;BME280;51226;47.504;19.074;2023-05-24T14:41:42;100006.09;;;28.02;38.13
64792;BME280;51226;47.504;19.074;2023-05-24T14:44:44;100020.37;;;27.79;38.24
64792;BME280;51226;47.504;19.074;2023-05-24T14:47:47;100009.66;;;27.56;38.52
64792;BME280;51226;47.504;19.074;2023-05-24T14:50:50;100017.34;;;27.41;38.82
64792;BME280;51226;47.504;19.074;2023-05-24T14:53:53;100006.44;;;27.22;39.86
64792;BME280;51226;47.504;19.074;2023-05-24T14:56:55;100022.34;;;27.27;39.42
64792;BME280;51226;47.504;19.074;2023-05-24T14:59:58;100021.19;;;27.09;39.80
64792;BME280;51226;47.504;19.074;2023-05-24T15:03:01;100029.03;;;26.90;40.35
64792;BME280;51226;47.504;19.074;2023-05-24T15:06:04;100030.56;;;26.70;40.88
64792;BME280;51226;47.504;19.074;2023-05-24T15:09:07;100033.75;;;26.28;51.08
64792;BME280;51226;47.504;19.074;2023-05-24T15:12:10;100036.31;;;24.77;49.55
64792;BME280;51226;47.504;19.074;2023-05-24T15:15:13;100044.22;;;23.63;55.10
64792;BME280;51226;47.504;19.074;2023-05-24T15:18:16;100042.75;;;23.03;59.50
64792;BME280;51226;47.504;19.074;2023-05-24T15:21:19;100043.50;;;23.11;52.37
64792;BME280;51226;47.504;19.074;2023-05-24T15:24:22;100048.09;;;23.02;52.09
64792;BME280;51226;47.504;19.074;2023-05-24T15:27:24;100035.19;;;23.28;51.21
64792;BME280;51226;47.504;19.074;2023-05-24T15:30:27;100042.78;;;23.00;55.26
64792;BME280;51226;47.504;19.074;2023-05-24T15:33:30;100043.56;;;23.08;53.95
64792;BME280;51226;47.504;19.074;2023-05-24T15:36:34;100044.81;;;23.36;49.88
64792;BME280;51226;47.504;19.074;2023-05-24T15:39:37;100049.38;;;23.30;50.63
64792;BME280;51226;47.504;19.074;2023-05-24T15:42:40;100041.53;;;23.23;50.40
64792;BME280;51226;47.504;19.074;2023-05-24T15:45:43;100048.78;;;23.58;49.15
64792;BME280;51226;47.504;19.074;2023-05-24T15:48:46;100046.53;;;23.38;50.81
64792;BME280;51226;47.504;19.074;2023-05-24T15:51:48;100044.59;;;23.46;49.47
64792;BME280;51226;47.504;19.074;2023-05-24T15:54:54;100036.13;;;23.70;48.60
64792;BME280;51226;47.504;19.074;2023-05-24T15:57:57;100041.72;;;23.57;50.03
64792;BME280;51226;47.504;19.074;2023-05-24T16:01:00;100045.81;;;23.72;50.35
64792;BME280;51226;47.504;19.074;2023-05-24T16:04:02;100043.13;;;23.74;48.55
64792;BME280;51226;47.504;19.074;2023-05-24T16:07:05;100049.50;;;23.66;49.45
64792;BME280;51226;47.504;19.074;2023-05-24T16:10:08;100046.06;;;23.61;50.06
64792;BME280;51226;47.504;19.074;2023-05-24T16:13:11;100065.09;;;23.86;47.11
64792;BME280;51226;47.504;19.074;2023-05-24T16:16:14;100060.31;;;23.59;51.22
64792;BME280;51226;47.504;19.074;2023-05-24T16:19:17;100061.13;;;23.62;47.87